Time;durP1;ratioP1;P1;durP2;ratioP2;P2;SDS_P1;SDS_P2;PMS_P1;PMS_P2;Temp;Humidity;BMP_temperature;BMP_pressure;BME280_temperature;BME280_humidity;BME280_pressure;Samples;Min_cycle;Max_cycle;Signal;HPM_P1;HPM_P2
2023/07/04 00:01:10;;;;;;;2.97;1.02;;;;;;;20.76;86.54;99889.75;5074761;28;20070;-67
2023/07/04 00:03:36;;;;;;;2.38;1.10;;;;;;;20.79;85.96;99892.19;5091014;28;20044;-67
2023/07/04 00:06:04;;;;;;;2.92;0.80;;;;;;;20.77;85.76;99886.91;5088677;28;20097;-67
2023/07/04 00:08:33;;;;;;;3.28;1.13;;;;;;;20.83;86.03;99894.56;5081081;28;20032;-67
2023/07/04 00:11:00;;;;;;;3.60;1.10;;;;;;;20.82;86.20;99889.28;5091119;28;20425;-66
2023/07/04 00:13:27;;;;;;;2.15;1.00;;;;;;;20.87;85.73;99893.34;5090277;28;20085;-67
2023/07/04 00:15:54;;;;;;;1.77;0.77;;;;;;;20.88;86.03;99894.22;5088008;28;20027;-67
2023/07/04 00:18:22;;;;;;;1.90;0.85;;;;;;;20.81;86.32;99893.81;5090984;28;20024;-66
2023/07/04 00:20:53;;;;;;;2.47;1.00;;;;;;;20.88;85.85;99892.38;5083816;28;20154;-67
2023/07/04 00:23:20;;;;;;;2.22;1.20;;;;;;;20.88;86.08;99899.63;5078342;28;20767;-67
2023/07/04 00:25:46;;;;;;;2.78;1.17;;;;;;;20.83;86.94;99886.47;5070887;28;20020;-67
2023/07/04 00:28:11;;;;;;;3.28;0.88;;;;;;;20.86;86.43;99894.34;5070440;28;20021;-66
2023/07/04 00:30:36;;;;;;;1.83;1.00;;;;;;;20.87;86.29;99895.22;5076862;28;20483;-67
2023/07/04 00:33:02;;;;;;;2.70;1.20;;;;;;;20.88;86.47;99897.78;5064785;28;20102;-67
2023/07/04 00:35:28;;;;;;;2.53;1.10;;;;;;;20.92;85.92;99901.97;5089408;28;20024;-67
2023/07/04 00:37:55;;;;;;;2.22;0.95;;;;;;;20.98;86.19;99902.50;5089345;28;20415;-66
2023/07/04 00:40:21;;;;;;;2.60;1.30;;;;;;;20.98;85.66;99899.81;5088133;28;20034;-66
2023/07/04 00:42:46;;;;;;;3.35;1.20;;;;;;;21.02;85.82;99904.03;5088131;28;20036;-67
2023/07/04 00:45:20;;;;;;;3.03;1.08;;;;;;;21.03;85.49;99903.91;5088378;28;20077;-66
2023/07/04 00:47:54;;;;;;;2.40;0.70;;;;;;;21.02;85.83;99902.16;5088405;28;20042;-66
2023/07/04 00:50:25;;;;;;;1.50;0.90;;;;;;;20.94;86.99;99904.56;5084905;28;20049;-67
2023/07/04 00:52:53;;;;;;;3.03;0.95;;;;;;;20.89;88.12;99913.03;5068067;28;20024;-67
2023/07/04 00:55:19;;;;;;;1.80;0.90;;;;;;;20.86;88.32;99915.97;5070164;28;20032;-66
2023/07/04 00:57:47;;;;;;;3.38;1.30;;;;;;;20.75;89.77;99915.06;5077260;28;20028;-67
2023/07/04 01:00:50;;;;;;;3.60;1.27;;;;;;;20.78;90.11;99910.28;5069529;28;20020;-66
2023/07/04 01:03:20;;;;;;;2.63;1.17;;;;;;;20.74;90.34;99903.38;5066351;28;20043;-67
2023/07/04 01:06:07;;;;;;;3.13;1.20;;;;;;;20.68;90.95;99914.66;5069454;28;20040;-68
2023/07/04 01:08:36;;;;;;;4.05;1.25;;;;;;;20.65;90.99;99920.31;5068940;28;20024;-68
2023/07/04 01:11:05;;;;;;;2.22;1.45;;;;;;;20.59;92.63;99919.91;5067936;28;20077;-67
2023/07/04 01:13:37;;;;;;;2.60;1.15;;;;;;;20.55;92.72;99913.00;5069026;28;20036;-66
2023/07/04 01:16:09;;;;;;;3.88;1.13;;;;;;;20.53;92.84;99926.63;5068538;28;20051;-66
2023/07/04 01:18:37;;;;;;;2.15;1.10;;;;;;;20.49;93.28;99925.09;5068599;28;20028;-65
2023/07/04 01:21:05;;;;;;;6.30;1.40;;;;;;;20.46;93.33;99927.22;5069575;28;20111;-66
2023/07/04 01:23:33;;;;;;;4.30;1.27;;;;;;;20.36;94.90;99928.88;5067983;28;20024;-66
2023/07/04 01:26:21;;;;;;;4.47;1.40;;;;;;;20.31;95.07;99931.88;5068231;28;20141;-65
2023/07/04 01:28:51;;;;;;;4.03;1.33;;;;;;;20.30;94.70;99930.16;5067552;28;20036;-65
2023/07/04 01:31:20;;;;;;;3.35;1.20;;;;;;;20.28;95.04;99937.50;5067666;28;20658;-65
2023/07/04 01:33:48;;;;;;;4.25;1.30;;;;;;;20.32;94.80;99933.63;5067432;28;20659;-65
2023/07/04 01:36:18;;;;;;;5.75;1.77;;;;;;;20.30;94.91;99930.16;5066547;28;20024;-65
2023/07/04 01:38:44;;;;;;;3.58;1.60;;;;;;;20.30;94.48;99934.69;5066796;28;20410;-65
2023/07/04 01:41:10;;;;;;;4.03;1.38;;;;;;;20.27;94.95;99935.81;5067116;28;20031;-65
2023/07/04 01:43:36;;;;;;;4.97;1.60;;;;;;;20.21;94.82;99933.56;5065972;28;20039;-65
2023/07/04 01:46:02;;;;;;;4.28;1.10;;;;;;;20.19;94.63;99926.53;5066535;28;20032;-65
2023/07/04 01:48:28;;;;;;;3.78;1.40;;;;;;;20.17;95.92;99932.03;5067155;28;20077;-65
2023/07/04 01:50:53;;;;;;;2.20;1.33;;;;;;;20.12;96.16;99917.97;5067615;28;20036;-65
2023/07/04 01:53:19;;;;;;;4.63;1.52;;;;;;;20.02;97.19;99919.63;5069363;28;20036;-65
2023/07/04 01:55:44;;;;;;;4.07;1.27;;;;;;;20.04;96.86;99928.47;5068933;28;20028;-66
2023/07/04 01:58:10;;;;;;;5.93;1.52;;;;;;;20.03;96.77;99921.34;5069358;28;20369;-66
2023/07/04 02:00:35;;;;;;;2.65;1.23;;;;;;;20.01;96.77;99917.91;5068630;28;20604;-66
2023/07/04 02:03:01;;;;;;;3.90;1.55;;;;;;;19.98;96.59;99922.66;5068905;28;20120;-65
2023/07/04 02:05:26;;;;;;;3.50;1.48;;;;;;;20.00;96.82;99931.53;5068963;28;20052;-66
2023/07/04 02:07:52;;;;;;;3.72;1.65;;;;;;;19.98;96.61;99922.66;5067695;28;20150;-66
2023/07/04 02:10:18;;;;;;;3.65;1.33;;;;;;;19.89;96.07;99916.09;5068741;28;20028;-66
2023/07/04 02:12:43;;;;;;;3.90;1.50;;;;;;;19.91;96.38;99914.16;5068816;28;20646;-66
2023/07/04 02:15:09;;;;;;;2.28;1.17;;;;;;;19.88;96.25;99919.78;5065617;28;20029;-66
2023/07/04 02:17:35;;;;;;;2.58;1.45;;;;;;;19.84;96.29;99930.88;5068778;28;20128;-66
2023/07/04 02:20:01;;;;;;;3.38;1.45;;;;;;;19.78;96.67;99917.81;5068020;28;20150;-66
2023/07/04 02:22:26;;;;;;;3.75;1.83;;;;;;;19.72;96.77;99924.50;5069072;28;20430;-68
2023/07/04 02:24:51;;;;;;;3.70;1.60;;;;;;;19.70;96.92;99923.78;5067933;28;20023;-68
2023/07/04 02:27:17;;;;;;;4.07;1.60;;;;;;;19.67;97.19;99913.19;5068632;28;20089;-68
2023/07/04 02:29:46;;;;;;;3.05;1.30;;;;;;;19.63;97.34;99917.09;5067709;28;20115;-68
2023/07/04 02:32:12;;;;;;;4.15;1.75;;;;;;;19.63;97.06;99917.09;5061455;28;20009;-67
2023/07/04 02:34:37;;;;;;;4.03;1.35;;;;;;;19.60;96.86;99912.75;5062643;28;20032;-67
2023/07/04 02:37:03;;;;;;;3.78;1.73;;;;;;;19.63;97.29;99917.97;5067217;28;20024;-68
2023/07/04 02:39:29;;;;;;;4.10;1.60;;;;;;;19.64;96.79;99916.09;5065801;28;20032;-67
2023/07/04 02:41:55;;;;;;;4.65;1.77;;;;;;;19.60;96.77;99914.63;5066211;28;20445;-67
2023/07/04 02:44:20;;;;;;;3.58;1.60;;;;;;;19.56;97.15;99910.41;5067746;28;20113;-67
2023/07/04 02:46:45;;;;;;;5.80;1.63;;;;;;;19.51;97.52;99907.16;5071433;28;20057;-68
2023/07/04 02:49:11;;;;;;;3.33;1.23;;;;;;;19.45;97.33;99908.47;5072652;28;20066;-68
2023/07/04 02:51:36;;;;;;;6.82;1.85;;;;;;;19.42;97.60;99913.22;5071368;28;20028;-67
2023/07/04 02:54:02;;;;;;;3.85;1.55;;;;;;;19.29;97.56;99901.56;5072511;28;20484;-68
2023/07/04 02:56:27;;;;;;;4.45;1.60;;;;;;;19.30;98.18;99908.66;5056778;28;20029;-67
2023/07/04 02:58:53;;;;;;;3.22;1.42;;;;;;;19.26;98.04;99920.59;5072503;28;20036;-67
2023/07/04 03:01:18;;;;;;;2.88;1.50;;;;;;;19.19;98.14;99922.00;5077822;28;20102;-67
2023/07/04 03:03:44;;;;;;;5.82;1.58;;;;;;;19.14;99.00;99914.22;5091691;28;20396;-68
2023/07/04 03:06:09;;;;;;;3.28;1.30;;;;;;;19.15;99.34;99915.09;5092390;28;20023;-67
2023/07/04 03:08:34;;;;;;;4.72;1.73;;;;;;;19.14;99.49;99916.91;5091689;28;20035;-68
2023/07/04 03:11:00;;;;;;;13.52;2.10;;;;;;;19.13;99.26;99917.91;5091907;28;20024;-68
2023/07/04 03:13:25;;;;;;;4.72;1.70;;;;;;;19.13;99.59;99917.91;5092341;28;20028;-68
2023/07/04 03:15:51;;;;;;;3.28;1.48;;;;;;;19.12;99.35;99926.09;5091374;28;20407;-68
2023/07/04 03:18:16;;;;;;;5.85;1.73;;;;;;;19.05;99.33;99924.78;5092486;28;20028;-68
2023/07/04 03:20:41;;;;;;;6.50;1.80;;;;;;;19.00;99.62;99929.63;5091184;28;20040;-68
2023/07/04 03:23:07;;;;;;;5.57;1.65;;;;;;;18.98;99.78;99926.16;5090986;28;20024;-68
2023/07/04 03:25:32;;;;;;;4.40;1.67;;;;;;;18.99;99.87;99934.16;5089498;28;20020;-67
2023/07/04 03:27:58;;;;;;;3.45;1.73;;;;;;;19.01;100.00;99934.91;5087711;28;20043;-67
2023/07/04 03:30:23;;;;;;;4.43;1.92;;;;;;;19.01;100.00;99929.50;5087629;28;20224;-67
2023/07/04 03:32:48;;;;;;;5.30;1.73;;;;;;;19.08;100.00;99930.84;5087684;28;20035;-68
2023/07/04 03:35:14;;;;;;;4.50;1.60;;;;;;;19.11;100.00;99938.69;5087865;28;20051;-68
2023/07/04 03:37:39;;;;;;;3.83;1.48;;;;;;;19.14;99.83;99943.03;5087451;28;20062;-68
2023/07/04 03:40:08;;;;;;;4.05;1.60;;;;;;;19.16;100.00;99939.25;5090245;28;20392;-68
2023/07/04 03:42:34;;;;;;;3.67;1.50;;;;;;;19.18;100.00;99948.09;5090408;28;20035;-68
2023/07/04 03:45:00;;;;;;;5.78;1.80;;;;;;;19.14;100.00;99940.34;5089955;28;20024;-67
2023/07/04 03:47:25;;;;;;;3.90;1.85;;;;;;;19.19;100.00;99947.13;5088756;28;20039;-68
2023/07/04 03:49:51;;;;;;;3.85;1.60;;;;;;;19.21;100.00;99952.41;5089462;28;20032;-68
2023/07/04 03:52:16;;;;;;;3.78;1.60;;;;;;;19.24;100.00;99963.03;5090466;28;20061;-68
2023/07/04 03:54:42;;;;;;;3.70;1.80;;;;;;;19.26;100.00;99961.06;5089927;28;20081;-68
2023/07/04 03:57:08;;;;;;;3.83;1.90;;;;;;;19.25;100.00;99959.34;5090691;28;20024;-68
2023/07/04 03:59:33;;;;;;;3.63;1.50;;;;;;;19.18;100.00;99948.09;5091258;28;20467;-67
2023/07/04 04:01:59;;;;;;;3.63;1.50;;;;;;;19.21;100.00;99957.81;5091363;28;20051;-68
2023/07/04 04:04:24;;;;;;;5.90;1.83;;;;;;;19.25;100.00;99970.13;5091228;28;20112;-68
2023/07/04 04:06:51;;;;;;;4.13;1.70;;;;;;;19.28;100.00;99965.38;5084008;28;20495;-68
2023/07/04 04:09:17;;;;;;;3.17;1.80;;;;;;;19.29;100.00;99960.91;5076829;28;20034;-68
2023/07/04 04:11:42;;;;;;;4.68;1.90;;;;;;;19.34;100.00;99967.69;5081304;28;20115;-68
2023/07/04 04:14:09;;;;;;;4.32;1.73;;;;;;;19.39;100.00;99961.97;5081339;28;20039;-68
2023/07/04 04:16:35;;;;;;;2.90;1.40;;;;;;;19.46;100.00;99974.06;5089059;28;20024;-68
2023/07/04 04:19:01;;;;;;;6.45;1.70;;;;;;;19.49;100.00;99968.44;5090124;28;20023;-68
2023/07/04 04:21:27;;;;;;;4.13;1.58;;;;;;;19.51;100.00;99966.50;5090081;28;20027;-68
2023/07/04 04:23:53;;;;;;;4.95;1.85;;;;;;;19.54;99.94;99971.69;5089089;28;20024;-68
2023/07/04 04:26:22;;;;;;;5.97;1.60;;;;;;;19.53;100.00;99964.59;5086307;28;20031;-68
2023/07/04 04:28:48;;;;;;;2.78;1.50;;;;;;;19.59;100.00;99977.63;5067768;28;20020;-67
2023/07/04 04:31:14;;;;;;;4.35;2.15;;;;;;;19.60;100.00;99965.88;5068015;28;20124;-68
2023/07/04 04:33:40;;;;;;;5.75;2.38;;;;;;;19.63;100.00;99960.28;5078492;28;20413;-68
2023/07/04 04:36:05;;;;;;;4.70;2.05;;;;;;;19.78;100.00;99980.78;5082701;28;20028;-67
2023/07/04 04:38:31;;;;;;;9.27;2.38;;;;;;;19.84;100.00;99966.84;5069650;28;20033;-68
2023/07/04 04:41:06;;;;;;;5.15;1.95;;;;;;;19.91;100.00;99975.38;5077041;28;20032;-67
2023/07/04 04:43:32;;;;;;;7.43;1.98;;;;;;;20.01;99.18;99977.31;5089683;28;20024;-68
2023/07/04 04:45:59;;;;;;;6.55;2.05;;;;;;;20.08;98.72;99969.63;5083524;28;20036;-68
2023/07/04 04:48:29;;;;;;;5.88;2.00;;;;;;;20.16;97.61;99973.53;5076891;28;20040;-68
2023/07/04 04:51:00;;;;;;;4.93;2.25;;;;;;;20.31;97.12;99974.25;5069079;28;20078;-68
2023/07/04 04:53:26;;;;;;;4.82;2.78;;;;;;;20.42;96.95;99971.63;5069032;28;20055;-68
2023/07/04 04:55:52;;;;;;;4.15;2.35;;;;;;;20.50;96.49;99980.91;5083617;28;20112;-68
2023/07/04 04:58:18;;;;;;;5.93;2.10;;;;;;;20.56;95.90;99985.00;5086844;28;20120;-68
2023/07/04 05:00:44;;;;;;;4.90;1.95;;;;;;;20.56;96.20;99980.44;5089178;28;20035;-68
2023/07/04 05:03:13;;;;;;;7.10;2.75;;;;;;;20.59;95.77;99985.63;5072836;28;20032;-68
2023/07/04 05:05:39;;;;;;;3.88;1.85;;;;;;;20.58;95.21;99983.91;5070051;28;20056;-69
2023/07/04 05:08:04;;;;;;;4.22;1.85;;;;;;;20.57;95.81;99993.00;5084854;28;20067;-68
2023/07/04 05:10:30;;;;;;;4.50;2.03;;;;;;;20.54;96.23;99993.19;5070066;28;20477;-68
2023/07/04 05:12:57;;;;;;;5.88;2.40;;;;;;;20.53;96.52;99996.88;5075520;28;20028;-67
2023/07/04 05:15:23;;;;;;;3.65;1.80;;;;;;;20.59;97.00;99995.59;5081591;28;20472;-68
2023/07/04 05:17:48;;;;;;;7.20;2.20;;;;;;;20.77;97.01;99995.06;5084455;28;20035;-68
2023/07/04 05:20:16;;;;;;;8.05;2.42;;;;;;;20.92;95.23;99995.78;5085777;28;20027;-67
2023/07/04 05:22:42;;;;;;;5.32;2.35;;;;;;;21.10;94.10;99996.25;5088907;28;20031;-68
2023/07/04 05:25:08;;;;;;;5.75;2.28;;;;;;;21.12;92.87;100000.56;5072896;28;20473;-67
2023/07/04 05:27:33;;;;;;;5.90;2.28;;;;;;;21.12;93.19;100000.56;5078452;28;20031;-68
2023/07/04 05:29:58;;;;;;;6.00;2.15;;;;;;;21.25;93.01;100006.75;5088453;28;20024;-67
2023/07/04 05:32:24;;;;;;;5.18;2.03;;;;;;;21.37;92.37;99999.53;5087847;28;20103;-68
2023/07/04 05:34:49;;;;;;;4.75;1.90;;;;;;;21.41;91.15;100001.91;5088344;28;20032;-68
2023/07/04 05:37:15;;;;;;;5.18;1.98;;;;;;;21.57;90.62;100006.97;5088378;28;20479;-67
2023/07/04 05:39:41;;;;;;;5.07;1.95;;;;;;;21.70;89.96;99994.22;5088470;28;20020;-67
2023/07/04 05:42:06;;;;;;;6.20;2.70;;;;;;;21.79;88.91;100001.66;5088420;28;20031;-68
2023/07/04 05:44:31;;;;;;;5.55;2.05;;;;;;;21.94;88.26;100005.88;5089403;28;20047;-68
2023/07/04 05:46:57;;;;;;;4.68;2.08;;;;;;;21.91;87.46;100000.69;5089264;28;20028;-68
2023/07/04 05:49:22;;;;;;;6.70;2.05;;;;;;;21.93;87.38;99998.72;5088396;28;20039;-69
2023/07/04 05:51:48;;;;;;;5.18;2.10;;;;;;;21.95;86.70;100003.03;5089263;28;20574;-68
2023/07/04 05:54:13;;;;;;;6.10;2.20;;;;;;;22.16;86.13;99998.63;5089377;28;20024;-68
2023/07/04 05:56:39;;;;;;;12.15;2.65;;;;;;;22.30;85.48;100000.22;5088288;28;22019;-68
2023/07/04 05:59:04;;;;;;;22.38;3.97;;;;;;;22.44;85.43;99997.22;5089295;28;20111;-68
2023/07/04 06:01:42;;;;;;;4.40;1.95;;;;;;;22.66;83.56;99999.97;5081623;28;20045;-68
2023/07/04 06:04:09;;;;;;;5.50;2.10;;;;;;;22.78;81.26;100006.22;5069082;28;20040;-69
2023/07/04 06:06:40;;;;;;;5.63;2.40;;;;;;;22.74;78.83;100002.91;5076847;28;20028;-68
2023/07/04 06:09:15;;;;;;;6.20;1.83;;;;;;;22.81;78.65;100006.81;5087917;28;20039;-68
2023/07/04 06:11:46;;;;;;;5.72;2.22;;;;;;;22.96;78.13;100012.81;5071816;28;20135;-69
2023/07/04 06:14:17;;;;;;;12.80;2.45;;;;;;;23.07;78.06;100015.50;5076271;28;20083;-68
2023/07/04 06:16:42;;;;;;;6.20;2.20;;;;;;;23.08;78.14;100018.06;5075963;28;20106;-67
2023/07/04 06:19:08;;;;;;;7.03;2.47;;;;;;;23.29;78.61;100023.59;5088108;28;20032;-68
2023/07/04 06:21:33;;;;;;;3.88;2.22;;;;;;;23.34;77.55;100014.06;5079747;28;20056;-68
2023/07/04 06:23:59;;;;;;;4.78;1.90;;;;;;;23.49;77.82;100021.91;5090759;28;20095;-67
2023/07/04 06:26:27;;;;;;;5.25;2.20;;;;;;;23.57;76.60;100024.81;5090175;28;20031;-67
2023/07/04 06:28:54;;;;;;;4.10;1.67;;;;;;;23.62;74.52;100017.13;5090633;28;20050;-68
2023/07/04 06:31:20;;;;;;;3.92;1.95;;;;;;;23.66;73.28;100019.44;5081498;28;20027;-67
2023/07/04 06:33:45;;;;;;;6.53;2.08;;;;;;;23.60;69.72;100020.00;5085315;28;20472;-67
2023/07/04 06:36:14;;;;;;;4.95;2.22;;;;;;;23.70;68.94;100020.03;5092859;28;20028;-68
2023/07/04 06:38:40;;;;;;;10.23;2.10;;;;;;;23.82;67.71;100016.28;5092351;28;20761;-68
2023/07/04 06:41:11;;;;;;;4.90;2.10;;;;;;;24.01;67.51;100017.28;5089200;28;20059;-67
2023/07/04 06:43:39;;;;;;;3.65;1.95;;;;;;;24.07;67.56;100013.19;5072731;28;20063;-68
2023/07/04 06:46:04;;;;;;;4.82;1.90;;;;;;;24.01;64.99;100016.41;5079065;28;20043;-68
2023/07/04 06:48:30;;;;;;;4.20;2.05;;;;;;;23.99;64.71;100015.69;5072522;28;20036;-68
2023/07/04 06:51:03;;;;;;;4.43;2.17;;;;;;;23.95;65.35;100016.94;5078549;28;20463;-68
2023/07/04 06:53:31;;;;;;;4.65;1.63;;;;;;;24.08;64.20;100021.19;5092822;28;20489;-68
2023/07/04 06:56:09;;;;;;;5.18;1.90;;;;;;;23.96;63.40;100024.06;5091986;28;20019;-67
2023/07/04 06:58:37;;;;;;;6.00;2.55;;;;;;;24.13;63.11;100027.09;5092019;28;20046;-68
2023/07/04 07:01:04;;;;;;;5.45;1.88;;;;;;;24.29;62.30;100040.16;5092325;28;20047;-67
2023/07/04 07:03:30;;;;;;;5.47;1.77;;;;;;;24.43;61.91;100037.09;5083154;28;20024;-68
2023/07/04 07:05:56;;;;;;;6.00;2.00;;;;;;;24.61;61.02;100040.91;5083722;28;20089;-68
2023/07/04 07:08:21;;;;;;;4.38;1.60;;;;;;;24.75;59.52;100040.53;5091059;28;20023;-67
2023/07/04 07:10:55;;;;;;;5.25;2.17;;;;;;;24.84;58.73;100041.56;5091647;28;20081;-67
2023/07/04 07:13:21;;;;;;;6.00;1.55;;;;;;;24.92;58.47;100045.31;5090810;28;20024;-67
2023/07/04 07:15:47;;;;;;;4.53;1.48;;;;;;;25.06;57.70;100042.16;5068947;28;20031;-67
2023/07/04 07:18:12;;;;;;;6.45;2.20;;;;;;;25.34;56.41;100040.47;5090388;28;20127;-68
2023/07/04 07:20:37;;;;;;;5.53;2.05;;;;;;;25.56;55.66;100045.69;5091757;28;20080;-68
2023/07/04 07:23:03;;;;;;;5.85;2.10;;;;;;;25.64;55.30;100043.97;5092182;28;20020;-68
2023/07/04 07:25:28;;;;;;;5.95;2.38;;;;;;;25.61;55.34;100049.72;5091166;28;20077;-67
2023/07/04 07:27:54;;;;;;;7.40;2.30;;;;;;;25.71;54.29;100050.56;5092324;28;20054;-67
2023/07/04 07:30:19;;;;;;;4.75;2.10;;;;;;;25.56;54.96;100053.84;5090668;28;20051;-67
2023/07/04 07:32:44;;;;;;;6.50;1.65;;;;;;;25.84;54.31;100056.56;5092173;28;20377;-68
2023/07/04 07:35:10;;;;;;;4.65;1.70;;;;;;;26.01;53.63;100043.19;5091046;28;20106;-68
2023/07/04 07:37:36;;;;;;;4.10;1.60;;;;;;;26.44;51.18;100054.44;5091048;28;20028;-68
2023/07/04 07:40:03;;;;;;;6.20;1.85;;;;;;;26.93;51.21;100056.81;5091262;28;20024;-68
2023/07/04 07:42:32;;;;;;;6.85;1.98;;;;;;;27.28;48.96;100061.53;5074579;28;20028;-68
2023/07/04 07:44:58;;;;;;;4.47;1.52;;;;;;;27.35;46.17;100052.53;5073811;28;20016;-67
2023/07/04 07:47:23;;;;;;;9.00;1.88;;;;;;;27.64;47.26;100047.72;5089506;28;20016;-68
2023/07/04 07:49:49;;;;;;;2.92;1.40;;;;;;;27.51;47.98;100047.25;5091246;28;20610;-68
2023/07/04 07:52:14;;;;;;;7.78;2.63;;;;;;;27.80;48.33;100053.31;5091270;28;20423;-68
2023/07/04 07:54:40;;;;;;;6.03;1.85;;;;;;;27.75;46.51;100044.72;5083793;28;20024;-69
2023/07/04 07:57:06;;;;;;;4.43;1.85;;;;;;;27.79;46.77;100039.81;5091767;28;20027;-68
2023/07/04 07:59:32;;;;;;;6.93;1.80;;;;;;;27.73;45.71;100052.22;5090812;28;20028;-69
2023/07/04 08:01:57;;;;;;;6.80;2.78;;;;;;;27.70;46.10;100048.94;5089715;28;20187;-68
2023/07/04 08:04:22;;;;;;;6.03;2.50;;;;;;;28.00;45.60;100054.88;5086650;28;20028;-68
2023/07/04 08:06:48;;;;;;;7.15;2.08;;;;;;;28.18;44.60;100044.75;5087719;28;20493;-67
2023/07/04 08:09:16;;;;;;;3.50;1.63;;;;;;;28.32;44.59;100044.16;5086414;28;20043;-68
2023/07/04 08:11:45;;;;;;;5.05;1.90;;;;;;;28.48;42.76;100042.53;5088413;28;20020;-68
2023/07/04 08:14:11;;;;;;;10.88;2.67;;;;;;;28.47;43.16;100047.13;5085380;28;20479;-68
2023/07/04 08:16:46;;;;;;;5.10;1.67;;;;;;;28.75;43.57;100032.25;5087316;28;20666;-68
2023/07/04 08:19:13;;;;;;;6.13;2.13;;;;;;;28.90;43.20;100035.22;5088331;28;20024;-68
2023/07/04 08:21:39;;;;;;;5.07;1.60;;;;;;;29.14;42.34;100036.16;5071449;28;20024;-69
2023/07/04 08:24:10;;;;;;;5.32;2.17;;;;;;;29.21;42.16;100036.38;5077488;28;20533;-68
2023/07/04 08:26:36;;;;;;;5.95;1.92;;;;;;;29.51;42.30;100031.13;5073556;28;20033;-68
2023/07/04 08:29:01;;;;;;;8.05;2.53;;;;;;;29.66;40.43;100028.56;5069903;28;20503;-69
2023/07/04 08:31:27;;;;;;;7.45;2.65;;;;;;;29.99;40.80;100038.50;5081195;28;20019;-69
2023/07/04 08:33:53;;;;;;;7.30;3.33;;;;;;;30.45;39.71;100040.53;5089939;28;20039;-69
2023/07/04 08:36:19;;;;;;;4.75;2.05;;;;;;;30.21;39.75;100035.06;5077923;28;20036;-68
2023/07/04 08:38:47;;;;;;;5.97;1.80;;;;;;;30.47;38.18;100037.59;5088347;28;20437;-69
2023/07/04 08:41:40;;;;;;;8.48;2.03;;;;;;;30.57;38.64;100038.25;5076110;28;20027;-69
2023/07/04 08:44:12;;;;;;;5.72;1.70;;;;;;;30.58;38.31;100035.31;5073351;28;20124;-69
2023/07/04 08:46:43;;;;;;;4.45;1.80;;;;;;;30.72;39.32;100036.50;5085142;28;20028;-69
2023/07/04 08:49:27;;;;;;;6.13;1.83;;;;;;;30.71;39.12;100034.75;5085392;28;20032;-68
2023/07/04 08:52:03;;;;;;;4.50;1.70;;;;;;;30.72;39.72;100036.50;5080616;28;20024;-69
2023/07/04 08:54:29;;;;;;;5.30;2.08;;;;;;;31.03;37.53;100025.53;5073113;28;20039;-69
2023/07/04 08:57:05;;;;;;;4.88;2.08;;;;;;;30.84;38.13;100024.13;5086108;28;20036;-68
2023/07/04 08:59:40;;;;;;;7.43;2.05;;;;;;;30.79;38.01;100019.13;5085174;28;20174;-68
2023/07/04 09:02:24;;;;;;;4.10;1.75;;;;;;;31.08;37.85;100036.84;5073400;28;20054;-69
2023/07/04 09:04:55;;;;;;;7.07;2.35;;;;;;;31.11;36.03;100020.00;5086299;28;20027;-68
2023/07/04 09:07:43;;;;;;;4.80;2.88;;;;;;;31.16;36.28;100023.06;5071144;28;20116;-68
2023/07/04 09:10:15;;;;;;;10.07;2.47;;;;;;;31.12;36.44;100027.22;5036653;28;20048;-68
2023/07/04 09:12:42;;;;;;;6.70;2.15;;;;;;;31.25;36.53;100028.34;5087314;28;20020;-68
2023/07/04 09:15:25;;;;;;;7.47;3.00;;;;;;;31.44;36.51;100027.03;5069860;28;20199;-68
2023/07/04 09:18:03;;;;;;;7.43;2.60;;;;;;;31.50;36.30;100031.81;5073112;28;20170;-69
2023/07/04 09:20:35;;;;;;;4.95;1.92;;;;;;;31.75;35.78;100030.56;5069908;28;20121;-70
2023/07/04 09:23:11;;;;;;;6.30;2.40;;;;;;;31.38;35.01;100033.28;5074919;28;20089;-69
2023/07/04 09:25:36;;;;;;;6.18;2.40;;;;;;;31.08;34.80;100031.34;5069129;28;20032;-69
2023/07/04 09:28:02;;;;;;;4.53;2.30;;;;;;;31.44;35.25;100030.66;5068959;28;20055;-69
2023/07/04 09:30:27;;;;;;;5.82;2.33;;;;;;;31.81;35.09;100025.19;5069257;28;20029;-69
2023/07/04 09:32:53;;;;;;;5.07;2.22;;;;;;;31.81;34.47;100019.69;5064621;28;20677;-69
2023/07/04 09:35:19;;;;;;;7.03;2.17;;;;;;;31.70;35.56;100027.53;5069660;28;20036;-69
2023/07/04 09:37:58;;;;;;;6.38;2.30;;;;;;;31.67;35.89;100023.25;5073195;28;20032;-69
2023/07/04 09:40:40;;;;;;;4.82;2.20;;;;;;;31.96;35.01;100022.53;5071269;28;20346;-70
2023/07/04 09:43:07;;;;;;;7.70;2.65;;;;;;;32.21;34.54;100020.41;5068297;28;20020;-69
2023/07/04 09:45:33;;;;;;;6.20;2.55;;;;;;;31.61;35.45;100023.13;5085742;28;20107;-69
2023/07/04 09:47:58;;;;;;;7.95;3.25;;;;;;;30.92;35.70;100014.97;5068593;28;20149;-69
2023/07/04 09:50:26;;;;;;;5.03;2.30;;;;;;;30.75;37.16;100019.66;5074777;28;20035;-69
2023/07/04 09:53:11;;;;;;;6.60;2.10;;;;;;;30.97;35.71;100015.28;5067962;28;20017;-69
2023/07/04 09:55:40;;;;;;;6.93;2.60;;;;;;;31.38;36.12;100009.41;5080187;28;20169;-68
2023/07/04 09:58:21;;;;;;;8.80;2.90;;;;;;;31.40;35.75;100004.53;5083034;28;20017;-68
2023/07/04 10:01:09;;;;;;;7.97;2.20;;;;;;;31.70;34.18;100011.00;5070607;28;20060;-69
2023/07/04 10:03:40;;;;;;;5.97;2.20;;;;;;;31.91;33.12;100011.22;5058132;28;20487;-69
2023/07/04 10:06:07;;;;;;;5.90;2.33;;;;;;;31.97;35.04;99996.72;5068294;28;20510;-69
2023/07/04 10:08:49;;;;;;;6.47;2.47;;;;;;;32.28;33.13;99997.41;5073036;28;20590;-69
2023/07/04 10:11:24;;;;;;;6.78;2.13;;;;;;;32.46;33.02;100005.31;5066171;28;20047;-68
2023/07/04 10:13:59;;;;;;;5.70;2.45;;;;;;;32.05;33.14;99999.38;5071660;28;20032;-68
2023/07/04 10:16:24;;;;;;;5.65;2.60;;;;;;;31.95;33.98;99993.28;5087778;28;20376;-69
2023/07/04 10:18:50;;;;;;;6.85;2.20;;;;;;;32.27;32.91;99995.72;5087591;28;20031;-68
2023/07/04 10:21:17;;;;;;;6.75;2.42;;;;;;;32.16;33.36;99992.56;5088064;28;20161;-69
2023/07/04 10:23:43;;;;;;;5.82;2.30;;;;;;;32.11;34.63;99993.09;5077179;28;20532;-69
2023/07/04 10:26:10;;;;;;;6.32;2.30;;;;;;;31.81;34.25;99988.59;5068150;28;20071;-68
2023/07/04 10:28:36;;;;;;;9.80;2.42;;;;;;;31.74;34.64;99995.84;5070745;28;20032;-68
2023/07/04 10:31:09;;;;;;;5.35;2.13;;;;;;;32.11;34.43;99977.47;5072443;28;20080;-68
2023/07/04 10:33:44;;;;;;;7.32;2.45;;;;;;;32.27;35.09;99986.59;5071420;28;20035;-68
2023/07/04 10:36:13;;;;;;;4.70;2.28;;;;;;;31.80;34.20;99995.09;5072830;28;20451;-68
2023/07/04 10:38:42;;;;;;;6.22;2.58;;;;;;;31.84;33.04;99982.69;5070040;28;20032;-68
2023/07/04 10:41:46;;;;;;;7.90;2.80;;;;;;;31.95;34.07;99977.63;5079257;28;20511;-69
2023/07/04 10:44:18;;;;;;;7.22;2.25;;;;;;;32.29;33.03;99974.31;5080080;28;20157;-68
2023/07/04 10:46:53;;;;;;;5.95;2.63;;;;;;;31.83;32.60;99975.47;5074884;28;20028;-69
2023/07/04 10:49:21;;;;;;;6.35;2.80;;;;;;;31.31;33.79;99988.25;5068330;28;20032;-69
2023/07/04 10:51:52;;;;;;;5.38;2.45;;;;;;;31.28;32.88;99978.50;5068704;28;20193;-68
2023/07/04 10:54:19;;;;;;;13.00;3.30;;;;;;;31.15;33.10;99975.50;5073587;28;20026;-68
2023/07/04 10:56:49;;;;;;;4.82;2.20;;;;;;;31.24;34.49;99977.13;5068814;28;20028;-68
2023/07/04 10:59:22;;;;;;;8.10;3.22;;;;;;;31.45;33.92;99973.78;5075563;28;20028;-68
2023/07/04 11:01:55;;;;;;;6.93;2.70;;;;;;;31.45;32.61;99971.03;5068554;28;20052;-68
2023/07/04 11:04:23;;;;;;;;;;;;;;;31.02;35.81;99969.75;5068462;28;20041;-68
2023/07/04 11:07:18;;;;;;;6.32;2.50;;;;;;;31.49;34.14;99969.59;5080079;28;19920;-68
2023/07/04 11:09:43;;;;;;;5.55;2.65;;;;;;;31.72;32.47;99967.69;5076644;28;20054;-68
2023/07/04 11:12:16;;;;;;;5.55;2.78;;;;;;;31.71;34.17;99957.72;5075050;28;20020;-68
2023/07/04 11:14:44;;;;;;;7.00;2.50;;;;;;;32.05;32.53;99955.34;5080118;28;20036;-68
2023/07/04 11:17:17;;;;;;;5.55;2.38;;;;;;;32.29;33.24;99952.28;5066718;28;20032;-68
2023/07/04 11:20:11;;;;;;;5.78;2.35;;;;;;;32.88;31.59;99959.47;5082811;28;20036;-68
2023/07/04 11:22:37;;;;;;;;;;;;;;;33.78;31.72;99962.59;5081186;28;20480;-68
2023/07/04 11:25:26;;;;;;;6.20;2.15;;;;;;;33.65;29.38;99962.47;5085081;28;20392;-68
2023/07/04 11:28:22;;;;;;;7.82;2.45;;;;;;;33.36;31.88;99963.47;5081116;28;20032;-68
2023/07/04 11:30:49;;;;;;;7.30;2.70;;;;;;;33.39;31.25;99947.34;5077173;28;20395;-68
2023/07/04 11:33:53;;;;;;;5.25;2.65;;;;;;;33.73;31.01;99940.25;5088927;28;20020;-68
2023/07/04 11:36:45;;;;;;;5.43;2.35;;;;;;;33.93;30.36;99944.91;5076848;28;20021;-68